Time;durP1;ratioP1;P1;durP2;ratioP2;P2;SDS_P1;SDS_P2;PMS_P1;PMS_P2;Temp;Humidity;BMP_temperature;BMP_pressure;BME280_temperature;BME280_humidity;BME280_pressure;Samples;Min_cycle;Max_cycle;Signal;HPM_P1;HPM_P2
2022/10/10 00:01:23;;;;;;;19.73;8.98;;;;;;;6.27;87.14;95570.19;1728308;82;21575;-49
2022/10/10 00:03:51;;;;;;;12.75;7.70;;;;;;;6.19;86.98;95568.08;1728450;83;21198;-49
2022/10/10 00:06:18;;;;;;;23.07;8.40;;;;;;;6.13;87.61;95571.05;1728259;83;21049;-50
2022/10/10 00:08:46;;;;;;;19.75;10.08;;;;;;;6.09;87.78;95564.83;1728469;82;21002;-48
2022/10/10 00:11:15;;;;;;;19.55;10.40;;;;;;;6.06;88.10;95570.30;1728258;82;21048;-49
2022/10/10 00:13:44;;;;;;;20.70;9.95;;;;;;;6.05;88.54;95574.21;1728427;83;21446;-49
2022/10/10 00:16:11;;;;;;;18.12;8.65;;;;;;;6.06;88.62;95570.30;1728389;82;22126;-49
2022/10/10 00:18:38;;;;;;;28.38;17.85;;;;;;;6.07;88.71;95578.69;1728256;83;21025;-50
2022/10/10 00:21:07;;;;;;;12.73;8.98;;;;;;;6.09;88.94;95567.56;1728255;82;21010;-50
2022/10/10 00:23:33;;;;;;;16.87;8.75;;;;;;;6.08;88.69;95564.64;1728369;83;20974;-49
2022/10/10 00:26:01;;;;;;;11.73;7.92;;;;;;;6.04;88.51;95567.20;1728430;83;20969;-49
2022/10/10 00:28:27;;;;;;;12.90;7.08;;;;;;;5.98;88.78;95564.70;1728442;82;21245;-49
2022/10/10 00:30:54;;;;;;;14.50;6.80;;;;;;;5.93;88.62;95557.69;1728425;83;20977;-50
2022/10/10 00:33:22;;;;;;;15.40;8.50;;;;;;;5.91;88.58;95559.25;1748095;81;21048;-50
2022/10/10 00:35:50;;;;;;;13.43;8.20;;;;;;;5.87;88.57;95562.59;1730252;82;21013;-50
2022/10/10 00:38:18;;;;;;;19.27;8.48;;;;;;;5.82;88.46;95569.23;1731530;82;21075;-49
2022/10/10 00:40:49;;;;;;;13.43;9.30;;;;;;;5.77;88.43;95560.67;1731606;82;21252;-49
2022/10/10 00:43:16;;;;;;;15.15;9.35;;;;;;;5.74;88.45;95566.90;1731538;82;21527;-49
2022/10/10 00:45:45;;;;;;;21.30;9.50;;;;;;;5.72;88.41;95565.16;1731687;82;20998;-50
2022/10/10 00:48:21;;;;;;;11.95;7.67;;;;;;;5.72;88.34;95563.79;1731614;82;21045;-48
2022/10/10 00:51:00;;;;;;;13.68;7.70;;;;;;;5.72;88.00;95571.98;1731720;82;22240;-51
2022/10/10 00:53:35;;;;;;;20.27;9.25;;;;;;;5.67;87.74;95567.73;1684246;82;21164;-48
2022/10/10 00:56:02;;;;;;;25.20;11.18;;;;;;;5.65;87.73;95569.28;1731887;82;21477;-50
2022/10/10 00:58:29;;;;;;;26.62;13.03;;;;;;;5.59;87.75;95562.69;1731718;82;21515;-49
2022/10/10 01:00:58;;;;;;;29.63;14.78;;;;;;;5.51;87.55;95567.39;1731616;82;21536;-49
2022/10/10 01:03:25;;;;;;;29.15;14.55;;;;;;;5.38;87.65;95569.58;1731652;82;21576;-49
2022/10/10 01:05:52;;;;;;;32.80;15.20;;;;;;;5.31;87.92;95568.21;1731655;82;21201;-49
2022/10/10 01:08:19;;;;;;;29.32;19.85;;;;;;;5.27;88.27;95576.39;1731539;82;21088;-49
2022/10/10 01:11:04;;;;;;;26.85;16.23;;;;;;;5.23;88.52;95575.63;1731731;82;21434;-49
2022/10/10 01:13:36;;;;;;;32.67;17.50;;;;;;;5.17;88.44;95576.41;1731613;82;21013;-49
2022/10/10 01:16:26;;;;;;;23.65;14.70;;;;;;;5.12;88.68;95571.36;1730691;82;20949;-50
2022/10/10 01:19:06;;;;;;;26.87;15.23;;;;;;;5.09;88.65;95574.88;1731692;82;20962;-48
2022/10/10 01:22:06;;;;;;;31.62;15.23;;;;;;;5.08;88.65;95572.53;1705637;82;20953;-50
2022/10/10 01:25:11;;;;;;;29.95;15.20;;;;;;;5.08;89.35;95578.78;1731631;82;21013;-49
2022/10/10 01:27:52;;;;;;;21.80;12.55;;;;;;;5.12;89.72;95581.52;1731750;82;21480;-49
2022/10/10 01:30:21;;;;;;;20.62;11.60;;;;;;;5.11;89.04;95579.36;1731652;81;21524;-49
2022/10/10 01:33:13;;;;;;;21.65;12.43;;;;;;;5.03;88.42;95584.64;1731945;82;21242;-49
2022/10/10 01:36:00;;;;;;;15.23;9.40;;;;;;;5.00;88.63;95586.76;1729517;82;21513;-48
2022/10/10 01:38:41;;;;;;;16.62;9.68;;;;;;;4.98;88.25;95583.64;1688480;83;21014;-49
2022/10/10 01:41:16;;;;;;;18.20;9.55;;;;;;;4.89;88.43;95580.55;1728383;82;21472;-49
2022/10/10 01:43:43;;;;;;;18.50;9.93;;;;;;;4.88;88.41;95578.20;1728891;83;21421;-50
2022/10/10 01:46:16;;;;;;;21.42;11.70;;;;;;;4.83;88.31;95578.60;1728275;83;21304;-49
2022/10/10 01:48:44;;;;;;;18.05;10.38;;;;;;;4.79;88.27;95582.68;1728682;83;21029;-50
2022/10/10 01:51:48;;;;;;;21.87;10.53;;;;;;;4.71;88.09;95588.52;1728226;83;20993;-49
2022/10/10 01:54:36;;;;;;;21.02;11.78;;;;;;;4.68;88.46;95588.73;1708257;82;21061;-49
2022/10/10 01:57:24;;;;;;;32.73;15.65;;;;;;;4.65;88.62;95587.36;1728013;83;20950;-50
2022/10/10 02:00:06;;;;;;;38.38;18.95;;;;;;;4.60;88.89;95584.42;1728402;83;20954;-49
2022/10/10 02:03:03;;;;;;;62.55;20.77;;;;;;;4.64;89.50;95588.53;1728549;83;21405;-49
2022/10/10 02:05:48;;;;;;;42.03;19.25;;;;;;;4.67;89.52;95591.27;1727780;83;21069;-49
2022/10/10 02:08:35;;;;;;;36.73;16.75;;;;;;;4.66;89.26;95585.62;1727767;82;21009;-49
2022/10/10 02:11:07;;;;;;;33.28;17.90;;;;;;;4.68;89.63;95591.45;1699936;83;20950;-49
2022/10/10 02:13:54;;;;;;;29.85;16.42;;;;;;;4.73;89.94;95588.33;1728613;83;21238;-50
2022/10/10 02:16:25;;;;;;;28.23;15.65;;;;;;;4.78;90.10;95588.54;1748505;81;21714;-49
2022/10/10 02:18:52;;;;;;;22.67;15.23;;;;;;;4.81;90.23;95587.16;1728764;83;20973;-49
2022/10/10 02:21:19;;;;;;;20.72;13.35;;;;;;;4.85;90.48;95589.89;1728419;82;21036;-49
2022/10/10 02:23:47;;;;;;;23.75;13.90;;;;;;;4.91;90.81;95590.47;1728466;83;21001;-49
2022/10/10 02:26:16;;;;;;;22.45;13.72;;;;;;;5.03;90.96;95596.91;1728365;83;20945;-49
2022/10/10 02:29:09;;;;;;;25.32;13.30;;;;;;;5.16;91.22;95606.22;1728772;82;21026;-49
2022/10/10 02:31:49;;;;;;;26.27;12.82;;;;;;;5.27;91.04;95605.03;1728716;82;21464;-48
2022/10/10 02:34:20;;;;;;;24.35;12.85;;;;;;;5.25;90.13;95603.28;1746603;81;20969;-49
2022/10/10 02:36:53;;;;;;;18.62;10.13;;;;;;;5.13;89.78;95609.73;1728296;82;21054;-49
2022/10/10 02:39:22;;;;;;;19.42;10.75;;;;;;;5.05;89.51;95608.20;1728350;82;21213;-50
2022/10/10 02:41:50;;;;;;;31.70;14.30;;;;;;;5.04;89.49;95614.82;1748102;81;21025;-50
2022/10/10 02:44:16;;;;;;;30.97;14.43;;;;;;;5.01;89.14;95611.48;1728302;82;21002;-49
2022/10/10 02:46:43;;;;;;;28.10;14.95;;;;;;;4.99;89.27;95610.34;1728497;82;21006;-49
2022/10/10 02:49:10;;;;;;;20.80;12.00;;;;;;;5.02;89.60;95608.98;1728256;83;20998;-50
2022/10/10 02:51:38;;;;;;;26.97;12.37;;;;;;;5.06;89.55;95613.84;1728227;83;21159;-52
2022/10/10 02:54:06;;;;;;;29.72;13.55;;;;;;;5.07;89.51;95619.48;1728227;83;20973;-48
2022/10/10 02:56:33;;;;;;;25.43;11.75;;;;;;;5.08;89.46;95614.80;1728376;83;21018;-49
2022/10/10 02:59:00;;;;;;;21.82;11.60;;;;;;;5.06;89.41;95611.12;1728416;83;21052;-50
2022/10/10 03:01:26;;;;;;;17.62;10.85;;;;;;;5.07;89.88;95611.88;1728447;82;21061;-49
2022/10/10 03:03:53;;;;;;;18.25;10.78;;;;;;;5.12;90.15;95616.36;1728401;83;21140;-49
2022/10/10 03:06:20;;;;;;;18.48;9.50;;;;;;;5.19;90.53;95614.98;1728217;83;21045;-50
2022/10/10 03:08:46;;;;;;;18.02;9.90;;;;;;;5.32;90.65;95606.02;1728440;82;21445;-49
2022/10/10 03:11:13;;;;;;;22.37;10.43;;;;;;;5.42;90.28;95612.63;1748388;81;20966;-49
2022/10/10 03:13:41;;;;;;;22.98;11.28;;;;;;;5.49;89.92;95604.42;1728577;83;20989;-49
2022/10/10 03:16:10;;;;;;;21.97;12.07;;;;;;;5.51;89.68;95611.63;1728309;83;21227;-50
2022/10/10 03:18:38;;;;;;;19.92;11.55;;;;;;;5.51;89.66;95612.98;1728260;83;21052;-49
2022/10/10 03:21:05;;;;;;;25.82;11.10;;;;;;;5.50;89.12;95610.06;1728301;82;20990;-51
2022/10/10 03:23:33;;;;;;;22.05;11.00;;;;;;;5.42;88.60;95607.94;1728485;83;21057;-49
2022/10/10 03:26:00;;;;;;;27.40;12.15;;;;;;;5.40;88.35;95619.07;1728402;83;21010;-50
2022/10/10 03:28:27;;;;;;;24.47;12.55;;;;;;;5.38;88.15;95615.95;1728419;82;21175;-49
2022/10/10 03:30:54;;;;;;;26.23;13.28;;;;;;;5.37;88.01;95613.01;1728306;83;20986;-48
2022/10/10 03:33:21;;;;;;;22.50;14.40;;;;;;;5.32;87.74;95608.75;1728254;82;21064;-48
2022/10/10 03:35:48;;;;;;;19.30;12.60;;;;;;;5.21;87.60;95622.22;1728329;82;21057;-48
2022/10/10 03:38:15;;;;;;;24.12;13.18;;;;;;;5.17;87.87;95626.87;1728099;83;20978;-49
2022/10/10 03:40:42;;;;;;;18.82;11.25;;;;;;;5.12;87.69;95625.91;1728300;82;21239;-50
2022/10/10 03:43:10;;;;;;;27.82;13.78;;;;;;;5.08;87.84;95625.14;1728155;83;20986;-49
2022/10/10 03:45:37;;;;;;;28.55;15.88;;;;;;;4.99;87.75;95623.97;1728401;82;20961;-49
2022/10/10 03:48:04;;;;;;;32.15;15.50;;;;;;;4.86;88.13;95622.22;1728420;83;21466;-49
2022/10/10 03:50:31;;;;;;;22.95;13.58;;;;;;;4.82;88.51;95633.69;1728378;83;21017;-49
2022/10/10 03:52:58;;;;;;;20.17;10.85;;;;;;;4.77;88.70;95636.80;1728511;83;21639;-55
2022/10/10 03:55:24;;;;;;;20.15;11.25;;;;;;;4.70;88.69;95646.34;1728568;82;21030;-50
2022/10/10 03:57:51;;;;;;;21.05;10.50;;;;;;;4.57;88.61;95641.66;1728314;83;21010;-50
2022/10/10 04:00:18;;;;;;;15.53;8.98;;;;;;;4.45;89.13;95632.48;1728265;83;20958;-50
2022/10/10 04:02:44;;;;;;;13.58;10.30;;;;;;;4.42;89.57;95642.80;1748544;80;20962;-48
2022/10/10 04:05:12;;;;;;;28.27;16.12;;;;;;;4.38;89.98;95642.02;1728316;82;21154;-53
2022/10/10 04:07:40;;;;;;;26.77;14.23;;;;;;;4.34;90.04;95633.83;1728354;83;21064;-49
2022/10/10 04:10:08;;;;;;;21.17;13.85;;;;;;;4.37;90.20;95636.34;1699950;83;21434;-49
2022/10/10 04:12:39;;;;;;;22.00;14.93;;;;;;;4.32;90.13;95633.44;1728421;83;21430;-49
2022/10/10 04:15:08;;;;;;;23.10;14.10;;;;;;;4.31;90.24;95633.23;1699567;83;21175;-49
2022/10/10 04:17:35;;;;;;;20.95;15.32;;;;;;;4.27;90.30;95624.25;1728310;83;21234;-49
2022/10/10 04:20:04;;;;;;;28.83;14.55;;;;;;;4.25;90.52;95632.03;1728200;82;20958;-50
2022/10/10 04:22:31;;;;;;;17.60;12.35;;;;;;;4.21;90.71;95632.61;1728723;83;21045;-49
2022/10/10 04:24:58;;;;;;;18.42;11.55;;;;;;;4.24;90.85;95633.20;1728416;83;21033;-49
2022/10/10 04:27:25;;;;;;;13.90;11.80;;;;;;;4.20;90.93;95631.05;1728352;82;20994;-49
2022/10/10 04:29:52;;;;;;;20.48;12.85;;;;;;;4.17;90.95;95633.76;1748320;81;21137;-48
2022/10/10 04:32:19;;;;;;;16.57;11.10;;;;;;;4.11;91.28;95638.82;1728146;82;20994;-50
2022/10/10 04:34:45;;;;;;;12.65;10.25;;;;;;;4.06;91.55;95643.26;1728323;83;21001;-48
2022/10/10 04:37:12;;;;;;;10.72;9.10;;;;;;;4.01;91.68;95641.48;1699458;83;20993;-49
2022/10/10 04:39:39;;;;;;;10.03;8.93;;;;;;;4.02;92.00;95639.75;1699605;83;21096;-49
2022/10/10 04:42:07;;;;;;;17.00;10.08;;;;;;;4.03;91.98;95646.75;1700008;82;21437;-50
2022/10/10 04:44:34;;;;;;;13.85;9.60;;;;;;;4.03;92.24;95641.30;1748271;81;21001;-48
2022/10/10 04:47:01;;;;;;;11.15;9.55;;;;;;;4.10;92.62;95644.07;1728344;83;20997;-50
2022/10/10 04:49:28;;;;;;;27.40;8.58;;;;;;;4.09;92.29;95656.09;1728395;83;21010;-49
2022/10/10 04:51:54;;;;;;;16.65;9.45;;;;;;;4.06;92.04;95653.38;1699616;83;21013;-51
2022/10/10 04:54:21;;;;;;;9.40;8.10;;;;;;;4.04;92.22;95648.31;1728207;83;21923;-53
2022/10/10 04:56:48;;;;;;;11.75;9.60;;;;;;;4.02;92.09;95649.87;1728381;83;21029;-52
2022/10/10 04:59:15;;;;;;;10.70;9.05;;;;;;;3.95;91.95;95654.70;1728233;83;20954;-48
2022/10/10 05:01:42;;;;;;;10.65;9.00;;;;;;;3.88;91.96;95653.89;1728387;83;21065;-48
2022/10/10 05:04:09;;;;;;;15.70;8.88;;;;;;;3.86;92.09;95647.45;1723604;81;21604;-49
2022/10/10 05:06:36;;;;;;;10.55;8.80;;;;;;;3.87;92.00;95651.73;1699799;83;21858;-50
2022/10/10 05:09:03;;;;;;;14.35;10.63;;;;;;;3.89;92.07;95655.45;1727688;82;20969;-52
2022/10/10 05:11:30;;;;;;;12.35;9.48;;;;;;;3.89;92.36;95657.58;1728581;82;21453;-50
2022/10/10 05:13:57;;;;;;;17.02;10.75;;;;;;;3.98;92.67;95668.11;1728470;83;20977;-49
2022/10/10 05:16:25;;;;;;;15.70;10.63;;;;;;;3.99;92.41;95666.38;1728487;82;21033;-49
2022/10/10 05:18:52;;;;;;;12.18;9.70;;;;;;;4.03;92.38;95671.25;1728403;83;21147;-49
2022/10/10 05:21:19;;;;;;;13.28;10.43;;;;;;;4.09;92.37;95674.39;1726372;82;21045;-49
2022/10/10 05:23:45;;;;;;;13.38;10.55;;;;;;;4.14;91.99;95669.36;1698268;83;21976;-50
2022/10/10 05:26:12;;;;;;;17.05;11.90;;;;;;;4.17;92.01;95674.60;1697815;83;21503;-49
2022/10/10 05:28:41;;;;;;;22.17;12.23;;;;;;;4.30;92.72;95672.53;1698780;82;21042;-49
2022/10/10 05:31:07;;;;;;;102.72;17.32;;;;;;;4.52;93.22;95674.15;1695458;83;21208;-51
2022/10/10 05:33:34;;;;;;;24.92;12.13;;;;;;;4.69;92.36;95672.05;1696937;82;21077;-49
2022/10/10 05:36:07;;;;;;;21.62;10.78;;;;;;;4.87;92.05;95663.31;1696318;83;21182;-50
2022/10/10 05:38:34;;;;;;;18.82;11.85;;;;;;;5.02;91.30;95661.36;1684345;83;21882;-52
2022/10/10 05:41:01;;;;;;;21.48;11.57;;;;;;;5.08;90.36;95663.89;1678579;84;21492;-51
2022/10/10 05:43:28;;;;;;;14.25;9.15;;;;;;;5.05;89.49;95661.38;1680079;84;21255;-51
2022/10/10 05:45:55;;;;;;;16.15;9.23;;;;;;;5.02;89.40;95664.88;1682182;84;21063;-49
2022/10/10 05:48:22;;;;;;;11.25;8.68;;;;;;;5.01;89.13;95670.11;1681974;83;21079;-49
2022/10/10 05:50:54;;;;;;;14.28;8.63;;;;;;;5.03;88.93;95668.38;1685357;83;21059;-51
2022/10/10 05:53:22;;;;;;;12.00;8.15;;;;;;;5.05;88.75;95674.22;1680145;83;21048;-53
2022/10/10 05:55:49;;;;;;;16.02;9.63;;;;;;;5.00;88.66;95669.92;1684756;83;21073;-53
2022/10/10 05:58:18;;;;;;;20.70;10.98;;;;;;;4.96;88.58;95674.59;1657580;83;21053;-54
2022/10/10 06:00:47;;;;;;;11.93;9.28;;;;;;;5.00;88.69;95678.70;1683367;83;21020;-50
2022/10/10 06:03:15;;;;;;;10.75;8.05;;;;;;;5.06;88.38;95682.02;1685265;83;21075;-48
2022/10/10 06:05:44;;;;;;;18.45;11.05;;;;;;;5.12;87.96;95686.51;1657205;83;21058;-49
2022/10/10 06:08:13;;;;;;;16.62;11.25;;;;;;;5.08;87.70;95685.13;1689038;83;21243;-48
2022/10/10 06:10:42;;;;;;;17.77;11.57;;;;;;;5.15;88.26;95685.13;1680715;83;21035;-54
2022/10/10 06:13:12;;;;;;;25.02;12.63;;;;;;;5.28;88.36;95684.34;1611566;87;21024;-51
2022/10/10 06:15:39;;;;;;;25.65;11.00;;;;;;;5.43;88.49;95681.80;1641517;86;21581;-50
2022/10/10 06:18:06;;;;;;;20.23;10.98;;;;;;;5.60;87.92;95685.70;1683302;83;21048;-53
2022/10/10 06:20:38;;;;;;;20.68;10.70;;;;;;;5.65;86.80;95677.10;1685378;83;21129;-51
2022/10/10 06:23:05;;;;;;;16.57;11.28;;;;;;;5.68;86.50;95681.20;1684101;83;21016;-51
2022/10/10 06:25:33;;;;;;;12.50;9.85;;;;;;;5.74;86.67;95684.28;1685753;83;21027;-54
2022/10/10 06:28:01;;;;;;;31.50;14.65;;;;;;;5.79;86.21;95679.84;1683048;83;21064;-52
2022/10/10 06:30:29;;;;;;;20.60;10.30;;;;;;;5.82;85.95;95684.52;1684727;83;21994;-53
2022/10/10 06:32:57;;;;;;;24.27;10.48;;;;;;;5.89;85.79;95689.95;1682004;83;21583;-50
2022/10/10 06:35:24;;;;;;;16.23;9.70;;;;;;;5.94;85.32;95688.20;1686275;83;21003;-50
2022/10/10 06:37:51;;;;;;;21.62;11.75;;;;;;;6.01;85.11;95693.63;1693873;82;21034;-51
2022/10/10 06:40:18;;;;;;;18.40;10.90;;;;;;;6.07;84.88;95693.41;1675679;82;20996;-52
2022/10/10 06:42:45;;;;;;;29.10;11.18;;;;;;;6.13;84.61;95694.58;1699707;82;21666;-51
2022/10/10 06:45:12;;;;;;;19.62;12.65;;;;;;;6.12;84.16;95695.16;1719029;81;21197;-51
2022/10/10 06:47:40;;;;;;;24.27;12.95;;;;;;;6.13;83.93;95687.75;1705460;82;21029;-52
2022/10/10 06:50:08;;;;;;;19.90;12.40;;;;;;;6.15;84.00;95684.03;1710599;82;21054;-54
2022/10/10 06:52:35;;;;;;;28.47;12.98;;;;;;;6.28;84.90;95686.50;1707959;82;21499;-51
2022/10/10 06:55:02;;;;;;;27.58;14.73;;;;;;;6.50;84.68;95672.95;1713358;82;21107;-51
2022/10/10 06:57:29;;;;;;;21.15;14.50;;;;;;;6.62;83.61;95683.41;1696880;82;22289;-54
2022/10/10 06:59:57;;;;;;;22.00;12.95;;;;;;;6.68;83.08;95679.11;1680632;82;21052;-51
2022/10/10 07:02:26;;;;;;;21.68;12.90;;;;;;;6.77;82.99;95680.80;1710825;82;21582;-51
2022/10/10 07:04:53;;;;;;;23.65;11.78;;;;;;;6.84;82.02;95678.00;1715162;82;20980;-57
2022/10/10 07:07:20;;;;;;;16.40;12.20;;;;;;;6.85;81.44;95676.86;1709246;81;21055;-51
2022/10/10 07:09:46;;;;;;;16.57;11.88;;;;;;;6.87;81.46;95682.09;1707676;82;21054;-55
2022/10/10 07:12:13;;;;;;;28.52;14.13;;;;;;;6.89;81.22;95683.08;1700637;82;21434;-51
2022/10/10 07:14:40;;;;;;;19.60;13.50;;;;;;;6.96;81.51;95674.23;1704160;82;21012;-54
2022/10/10 07:17:07;;;;;;;19.17;11.83;;;;;;;7.15;81.95;95678.58;1711120;82;20936;-53
2022/10/10 07:19:36;;;;;;;22.35;14.13;;;;;;;7.39;81.39;95672.15;1704620;82;21014;-52
2022/10/10 07:22:04;;;;;;;22.20;16.15;;;;;;;7.52;81.63;95664.97;1708353;82;21217;-51
2022/10/10 07:24:31;;;;;;;21.30;14.28;;;;;;;7.75;81.24;95662.42;1711290;82;20985;-52
2022/10/10 07:26:58;;;;;;;25.70;17.87;;;;;;;7.96;80.22;95660.84;1716393;82;21091;-53
2022/10/10 07:29:27;;;;;;;29.37;16.23;;;;;;;8.06;79.31;95658.55;1660509;83;21031;-53
2022/10/10 07:31:53;;;;;;;19.42;14.95;;;;;;;8.24;78.47;95661.14;1722993;82;21536;-51
2022/10/10 07:34:20;;;;;;;26.87;15.48;;;;;;;8.30;77.92;95659.48;1708773;82;21478;-52
2022/10/10 07:36:49;;;;;;;24.05;14.63;;;;;;;8.27;76.96;95654.22;1706831;81;22154;-52
2022/10/10 07:39:20;;;;;;;16.15;12.65;;;;;;;8.25;76.88;95648.37;1681063;82;22016;-52
2022/10/10 07:41:49;;;;;;;21.42;14.68;;;;;;;8.28;76.78;95650.30;1715484;82;21572;-51
2022/10/10 07:44:15;;;;;;;21.35;14.18;;;;;;;8.18;76.24;95647.09;1721576;82;21071;-51
2022/10/10 07:46:43;;;;;;;17.77;13.88;;;;;;;8.09;76.71;95649.51;1691784;83;21106;-52
2022/10/10 07:49:11;;;;;;;24.52;15.72;;;;;;;8.17;76.75;95644.15;1716289;82;21024;-51
2022/10/10 07:51:39;;;;;;;24.18;14.83;;;;;;;8.21;76.59;95638.66;1703653;82;21174;-55
2022/10/10 07:54:05;;;;;;;24.02;13.45;;;;;;;8.23;76.23;95640.40;1721011;82;21291;-50
2022/10/10 07:56:32;;;;;;;17.80;13.28;;;;;;;8.25;76.21;95641.52;1712711;82;21915;-52
2022/10/10 07:59:00;;;;;;;27.42;15.05;;;;;;;8.35;76.62;95636.52;1687795;82;21370;-53
2022/10/10 08:01:27;;;;;;;22.48;14.03;;;;;;;8.54;76.79;95633.13;1694532;81;21054;-50
2022/10/10 08:03:56;;;;;;;18.65;13.38;;;;;;;8.80;76.63;95632.36;1709518;82;21066;-55
2022/10/10 08:06:22;;;;;;;18.87;11.60;;;;;;;9.05;76.16;95628.06;1715422;82;21014;-52
2022/10/10 08:08:51;;;;;;;14.28;12.68;;;;;;;9.24;74.94;95618.36;1694499;82;21077;-51
2022/10/10 08:11:20;;;;;;;27.17;14.43;;;;;;;9.40;74.77;95611.63;1717632;82;21940;-53
2022/10/10 08:13:47;;;;;;;23.80;14.45;;;;;;;9.57;74.05;95613.27;1720359;82;20946;-51
2022/10/10 08:16:16;;;;;;;25.12;11.50;;;;;;;9.64;73.84;95613.16;1684402;82;21037;-53
2022/10/10 08:18:44;;;;;;;16.52;10.90;;;;;;;9.70;73.37;95609.51;1707428;82;21831;-52
2022/10/10 08:21:12;;;;;;;23.40;12.37;;;;;;;9.80;73.59;95607.15;1710814;82;21097;-53
2022/10/10 08:23:39;;;;;;;14.95;10.08;;;;;;;9.87;73.14;95603.50;1722909;82;21270;-50
2022/10/10 08:26:08;;;;;;;31.82;14.63;;;;;;;9.93;72.91;95601.22;1685315;82;21166;-53
2022/10/10 08:28:36;;;;;;;23.27;15.35;;;;;;;10.02;72.84;95603.44;1720895;82;22276;-50
2022/10/10 08:31:20;;;;;;;26.50;13.40;;;;;;;10.19;72.62;95596.20;1716725;82;21078;-51
2022/10/10 08:33:46;;;;;;;19.90;11.45;;;;;;;10.35;72.82;95603.75;1716487;82;21024;-51
2022/10/10 08:36:17;;;;;;;17.60;10.90;;;;;;;10.51;72.48;95598.31;1712945;81;21378;-52
2022/10/10 08:38:46;;;;;;;15.15;11.78;;;;;;;10.68;72.67;95594.40;1708060;82;21641;-54
2022/10/10 08:41:45;;;;;;;17.70;10.48;;;;;;;10.93;71.97;95600.28;1711354;82;21108;-57
2022/10/10 08:44:29;;;;;;;10.20;7.67;;;;;;;11.18;71.43;95596.95;1697311;82;26607;-50
2022/10/10 08:47:11;;;;;;;16.60;8.28;;;;;;;11.43;70.81;95595.72;1706725;82;21287;-53
2022/10/10 08:49:57;;;;;;;12.30;9.93;;;;;;;11.60;70.33;95598.08;1710960;82;21713;-53
2022/10/10 08:52:37;;;;;;;7.45;6.65;;;;;;;11.74;69.79;95591.42;1705440;82;21047;-55
2022/10/10 08:55:09;;;;;;;9.60;6.00;;;;;;;11.93;68.22;95595.41;1710764;82;21084;-55
2022/10/10 08:57:47;;;;;;;8.45;5.60;;;;;;;12.17;66.61;95599.48;1706636;82;22208;-55
2022/10/10 09:00:20;;;;;;;9.60;5.62;;;;;;;12.34;64.92;95592.70;1704432;82;20989;-52
2022/10/10 09:02:51;;;;;;;10.15;5.53;;;;;;;12.57;64.32;95593.17;1710147;82;21638;-53
2022/10/10 09:05:21;;;;;;;26.55;6.40;;;;;;;12.79;63.90;95591.34;1713566;81;21049;-50
2022/10/10 09:08:01;;;;;;;11.40;5.33;;;;;;;13.00;63.60;95584.41;1705302;82;21087;-54
2022/10/10 09:10:54;;;;;;;17.45;10.85;;;;;;;13.22;62.44;95581.13;1707314;81;21213;-53
2022/10/10 09:13:35;;;;;;;9.03;6.72;;;;;;;13.55;61.27;95584.59;1691676;82;21625;-51
2022/10/10 09:16:39;;;;;;;7.75;5.65;;;;;;;13.89;61.19;95579.67;1716812;82;21270;-50
2022/10/10 09:19:26;;;;;;;5.95;4.08;;;;;;;14.20;60.30;95575.80;1652050;84;21069;-50
2022/10/10 09:21:57;;;;;;;8.53;4.97;;;;;;;14.45;58.37;95574.30;1649640;85;21747;-53
2022/10/10 09:24:41;;;;;;;8.18;4.00;;;;;;;14.63;57.41;95573.03;1688731;82;21301;-51
2022/10/10 09:27:18;;;;;;;9.43;4.42;;;;;;;14.83;56.28;95570.05;1698995;82;21052;-53
2022/10/10 09:30:01;;;;;;;6.15;4.35;;;;;;;15.07;55.56;95572.48;1719763;81;21111;-51
2022/10/10 09:32:34;;;;;;;8.85;5.12;;;;;;;15.31;53.31;95569.95;1701730;83;21015;-50
2022/10/10 09:35:23;;;;;;;4.92;3.40;;;;;;;15.60;52.45;95560.05;1713784;82;21023;-50
2022/10/10 09:37:56;;;;;;;7.95;5.25;;;;;;;15.97;51.95;95559.45;1700193;82;21059;-52
2022/10/10 09:40:33;;;;;;;8.33;3.20;;;;;;;16.55;51.13;95556.67;1714604;82;21062;-52
2022/10/10 09:43:10;;;;;;;6.10;2.70;;;;;;;17.11;49.32;95551.26;1712456;82;21167;-52
2022/10/10 09:45:39;;;;;;;3.67;2.92;;;;;;;17.68;47.28;95550.06;1717395;82;21037;-55
2022/10/10 09:48:07;;;;;;;8.45;4.30;;;;;;;18.32;45.63;95544.33;1702882;81;21078;-51
2022/10/10 09:50:34;;;;;;;8.55;3.80;;;;;;;18.85;44.28;95540.86;1700494;81;21089;-52
2022/10/10 09:53:01;;;;;;;5.85;2.70;;;;;;;19.36;42.75;95537.02;1722417;82;21007;-53
2022/10/10 09:55:38;;;;;;;5.72;2.80;;;;;;;19.87;41.73;95527.47;1722086;82;21207;-50
2022/10/10 09:58:34;;;;;;;8.15;2.60;;;;;;;20.34;41.55;95531.25;1728542;82;20987;-52
2022/10/10 10:01:26;;;;;;;5.72;2.60;;;;;;;20.87;40.42;95527.34;1701791;82;21109;-51
2022/10/10 10:04:17;;;;;;;5.73;2.60;;;;;;;21.43;38.87;95526.52;1695298;83;21073;-50
2022/10/10 10:06:48;;;;;;;5.35;2.50;;;;;;;21.99;38.26;95525.64;1695207;84;21757;-51
2022/10/10 10:09:21;;;;;;;3.70;1.82;;;;;;;22.26;37.16;95518.75;1695407;84;21162;-52
2022/10/10 10:11:55;;;;;;;8.68;2.15;;;;;;;22.42;36.58;95520.84;1715671;83;21057;-52
2022/10/10 10:14:29;;;;;;;6.22;2.98;;;;;;;22.72;36.14;95512.91;1718031;83;21515;-51
2022/10/10 10:17:08;;;;;;;20.55;15.58;;;;;;;23.14;34.90;95502.88;1717272;82;21057;-50
2022/10/10 10:19:41;;;;;;;11.28;5.80;;;;;;;23.50;34.34;95490.59;1691447;83;21486;-50
2022/10/10 10:22:38;;;;;;;5.85;2.15;;;;;;;23.83;33.91;95498.20;1689503;83;21207;-50
2022/10/10 10:25:37;;;;;;;3.35;1.60;;;;;;;24.25;32.77;95491.53;1696202;84;21069;-52
2022/10/10 10:28:18;;;;;;;5.85;2.00;;;;;;;24.67;31.73;95491.07;1686398;84;21539;-52
2022/10/10 10:30:47;;;;;;;3.50;1.37;;;;;;;24.97;31.32;95490.50;1717546;83;20964;-54
2022/10/10 10:33:20;;;;;;;4.85;1.47;;;;;;;25.27;29.97;95479.39;1690604;82;21086;-54
2022/10/10 10:35:55;;;;;;;1.47;1.37;;;;;;;25.52;29.13;95471.73;1696072;83;21248;-51
2022/10/10 10:38:27;;;;;;;22.15;4.55;;;;;;;25.67;29.24;95474.92;1692548;83;21134;-54
2022/10/10 10:41:08;;;;;;;2.47;1.50;;;;;;;25.97;28.73;95475.73;1705584;83;21415;-54
2022/10/10 10:44:02;;;;;;;5.28;1.30;;;;;;;26.12;27.36;95469.03;1687837;83;21119;-51
2022/10/10 10:46:50;;;;;;;2.60;1.60;;;;;;;26.37;28.21;95463.47;1675252;84;21070;-50
2022/10/10 10:49:37;;;;;;;11.00;3.00;;;;;;;26.66;25.45;95461.14;1702377;82;21265;-52
2022/10/10 10:52:44;;;;;;;9.60;2.40;;;;;;;26.71;25.18;95457.47;1690007;83;21062;-54
2022/10/10 10:55:40;;;;;;;1.62;1.27;;;;;;;26.58;24.95;95461.66;1698720;82;21093;-51
2022/10/10 10:58:34;;;;;;;1.75;1.10;;;;;;;26.77;25.85;95459.58;1727156;81;21577;-51
2022/10/10 11:01:07;;;;;;;3.22;1.02;;;;;;;26.97;25.13;95449.13;1712262;81;22207;-51
2022/10/10 11:03:51;;;;;;;1.67;0.85;;;;;;;27.20;25.49;95439.67;1708309;82;21544;-51
2022/10/10 11:06:42;;;;;;;4.25;1.10;;;;;;;27.22;25.36;95444.88;1624719;82;21046;-51
2022/10/10 11:09:24;;;;;;;3.62;1.07;;;;;;;27.38;25.09;95439.59;1712501;82;21024;-51
2022/10/10 11:12:09;;;;;;;5.10;0.82;;;;;;;27.69;23.94;95435.95;1687128;82;21104;-53
2022/10/10 11:14:47;;;;;;;1.10;0.80;;;;;;;27.78;22.82;95426.30;1659317;84;21054;-53
2022/10/10 11:17:48;;;;;;;1.57;0.70;;;;;;;27.86;22.50;95429.35;1688045;82;21262;-51
2022/10/10 11:20:41;;;;;;;1.10;0.72;;;;;;;27.93;22.82;95423.70;1644764;82;22089;-54
2022/10/10 11:23:16;;;;;;;1.47;0.90;;;;;;;27.98;22.56;95416.48;1705106;82;21578;-55
2022/10/10 11:25:54;;;;;;;1.45;1.10;;;;;;;28.10;22.24;95417.16;1696292;83;21047;-52
2022/10/10 11:28:29;;;;;;;2.27;0.98;;;;;;;28.19;22.90;95417.36;1683320;83;22178;-53
2022/10/10 11:31:04;;;;;;;3.35;1.07;;;;;;;28.51;21.96;95408.04;1696926;83;21177;-54
2022/10/10 11:33:41;;;;;;;6.40;1.17;;;;;;;28.67;21.72;95409.73;1717344;82;22146;-52
2022/10/10 11:36:20;;;;;;;3.08;1.12;;;;;;;28.83;21.18;95407.17;1714719;82;21089;-54
2022/10/10 11:39:12;;;;;;;1.17;0.70;;;;;;;28.95;21.30;95398.55;1697226;81;21097;-53
2022/10/10 11:41:56;;;;;;;2.52;1.17;;;;;;;29.12;20.87;95391.81;1723632;81;21070;-53
2022/10/10 11:44:37;;;;;;;4.53;1.20;;;;;;;29.07;21.11;95387.02;1682795;82;22157;-54
2022/10/10 11:47:30;;;;;;;1.72;0.90;;;;;;;29.16;20.79;95392.22;1725655;82;21145;-53
2022/10/10 11:50:17;;;;;;;6.17;1.20;;;;;;;28.92;21.05;95381.23;1720074;82;21054;-54
2022/10/10 11:53:14;;;;;;;4.33;1.00;;;;;;;28.71;20.78;95372.69;1731913;82;21253;-52
2022/10/10 11:55:58;;;;;;;4.10;0.70;;;;;;;28.88;20.89;95370.20;1720274;82;21014;-56